createdAt,value
2024-04-16T00:00:28.378Z,22.96
2024-04-16T00:03:16.409Z,22.83
2024-04-16T00:05:44.221Z,22.74
2024-04-16T00:08:12.082Z,22.78
2024-04-16T00:10:39.822Z,22.86
2024-04-16T00:13:07.646Z,22.94
2024-04-16T00:15:41.440Z,23.02
2024-04-16T00:18:09.506Z,23.03
2024-04-16T00:20:37.201Z,22.85
2024-04-16T00:23:05.127Z,22.77
2024-04-16T00:25:32.951Z,22.80
2024-04-16T00:28:00.931Z,22.87
2024-04-16T00:30:29.342Z,22.94
2024-04-16T00:32:58.831Z,23.00
2024-04-16T00:35:28.520Z,22.93
2024-04-16T00:37:57.157Z,22.74
2024-04-16T00:40:25.104Z,22.70
2024-04-16T00:42:53.115Z,22.74
2024-04-16T00:45:21.169Z,22.80
2024-04-16T00:47:49.751Z,22.85
2024-04-16T00:50:17.634Z,22.91
2024-04-16T00:52:46.140Z,22.90
2024-04-16T00:55:14.762Z,22.70
2024-04-16T00:57:42.557Z,22.62
2024-04-16T01:00:11.123Z,22.64
2024-04-16T01:02:38.923Z,22.68
2024-04-16T01:05:06.784Z,22.73
2024-04-16T01:07:34.537Z,22.78
2024-04-16T01:10:02.609Z,22.83
2024-04-16T01:12:30.686Z,22.73
2024-04-16T01:14:58.266Z,22.56
2024-04-16T01:17:26.751Z,22.52
2024-04-16T01:19:54.605Z,22.55
2024-04-16T01:22:23.067Z,22.60
2024-04-16T01:24:50.864Z,22.65
2024-04-16T01:27:19.189Z,22.71
2024-04-16T01:29:47.010Z,22.75
2024-04-16T01:32:15.641Z,22.62
2024-04-16T01:34:43.350Z,22.46
2024-04-16T01:37:10.942Z,22.44
2024-04-16T01:39:38.723Z,22.46
2024-04-16T01:42:06.539Z,22.51
2024-04-16T01:44:34.215Z,22.55
2024-04-16T01:47:02.028Z,22.60
2024-04-16T01:49:29.882Z,22.65
2024-04-16T01:51:57.704Z,22.62
2024-04-16T01:54:25.406Z,22.43
2024-04-16T01:56:53.336Z,22.37
2024-04-16T01:59:21.102Z,22.38
2024-04-16T02:01:49.593Z,22.42
2024-04-16T02:04:17.441Z,22.47
2024-04-16T02:06:45.429Z,22.51
2024-04-16T02:09:13.224Z,22.57
2024-04-16T02:11:40.940Z,22.61
2024-04-16T02:14:08.727Z,22.57
2024-04-16T02:16:36.742Z,22.38
2024-04-16T02:19:04.633Z,22.32
2024-04-16T02:21:33.580Z,22.33
2024-04-16T02:24:01.328Z,22.36
2024-04-16T02:26:28.985Z,22.41
2024-04-16T02:28:56.750Z,22.45
2024-04-16T02:31:24.490Z,22.50
2024-04-16T02:33:53.119Z,22.54
2024-04-16T02:36:21.072Z,22.58
2024-04-16T02:38:48.890Z,22.42
2024-04-16T02:41:16.512Z,22.30
2024-04-16T02:43:44.281Z,22.29
2024-04-16T02:46:12.074Z,22.30
2024-04-16T02:48:40.108Z,22.34
2024-04-16T02:51:14.627Z,22.38
2024-04-16T02:53:42.728Z,22.43
2024-04-16T02:56:10.373Z,22.47
2024-04-16T02:58:37.998Z,22.51
2024-04-16T03:01:06.971Z,22.53
2024-04-16T03:03:35.743Z,22.38
2024-04-16T03:06:04.402Z,22.26
2024-04-16T03:08:32.374Z,22.23
2024-04-16T03:11:01.444Z,22.25
2024-04-16T03:13:29.629Z,22.29
2024-04-16T03:15:57.423Z,22.34
2024-04-16T03:18:25.169Z,22.38
2024-04-16T03:21:01.477Z,22.41
2024-04-16T03:23:29.927Z,22.46
2024-04-16T03:25:57.854Z,22.50
2024-04-16T03:28:25.908Z,22.43
2024-04-16T03:30:53.757Z,22.24
2024-04-16T03:33:21.423Z,22.18
2024-04-16T03:35:55.928Z,22.19
2024-04-16T03:38:23.505Z,22.22
2024-04-16T03:41:04.551Z,22.26
2024-04-16T03:43:33.728Z,22.30
2024-04-16T03:46:26.869Z,22.35
2024-04-16T03:48:54.536Z,22.39
2024-04-16T03:51:22.515Z,22.43
2024-04-16T03:53:50.386Z,22.47
2024-04-16T03:56:18.111Z,22.46
2024-04-16T03:59:05.931Z,22.25
2024-04-16T04:01:33.891Z,22.14
2024-04-16T04:04:02.046Z,22.14
2024-04-16T04:06:30.147Z,22.16
2024-04-16T04:08:58.118Z,22.19
2024-04-16T04:11:25.815Z,22.23
2024-04-16T04:13:53.647Z,22.27
2024-04-16T04:16:21.574Z,22.30
2024-04-16T04:18:49.996Z,22.32
2024-04-16T04:21:17.760Z,22.35
2024-04-16T04:23:45.730Z,22.37
2024-04-16T04:26:13.706Z,22.39
2024-04-16T04:28:41.487Z,22.41
2024-04-16T04:31:19.479Z,22.42
2024-04-16T04:33:47.968Z,22.43
2024-04-16T04:36:15.891Z,22.32
2024-04-16T04:38:44.005Z,22.11
2024-04-16T04:41:14.530Z,22.03
2024-04-16T04:43:42.644Z,22.02
2024-04-16T04:46:11.884Z,22.03
2024-04-16T04:48:41.074Z,22.05
2024-04-16T04:51:09.069Z,22.07
2024-04-16T04:53:38.372Z,22.09
2024-04-16T04:56:08.696Z,22.11
2024-04-16T04:58:37.381Z,22.12
2024-04-16T05:01:06.197Z,22.13
2024-04-16T05:03:34.184Z,22.15
2024-04-16T05:06:02.090Z,22.16
2024-04-16T05:08:30.234Z,22.18
2024-04-16T05:10:58.188Z,22.20
2024-04-16T05:13:26.000Z,22.21
2024-04-16T05:15:53.914Z,22.21
2024-04-16T05:18:22.426Z,22.22
2024-04-16T05:20:50.316Z,22.24
2024-04-16T05:23:18.132Z,22.24
2024-04-16T05:25:56.573Z,22.25
2024-04-16T05:28:24.524Z,22.25
2024-04-16T05:30:52.396Z,22.26
2024-04-16T05:33:21.599Z,22.26
2024-04-16T05:35:49.559Z,22.26
2024-04-16T05:38:17.370Z,22.27
2024-04-16T05:40:45.094Z,22.26
2024-04-16T05:43:12.850Z,22.26
2024-04-16T05:45:41.548Z,22.26
2024-04-16T05:48:09.401Z,22.26
2024-04-16T05:50:37.270Z,22.25
2024-04-16T05:53:05.278Z,22.25
2024-04-16T05:55:32.936Z,22.25
2024-04-16T05:58:01.815Z,22.25
2024-04-16T06:00:29.941Z,22.24
2024-04-16T06:02:58.448Z,22.24
2024-04-16T06:05:27.665Z,22.24
2024-04-16T06:07:57.707Z,22.25
2024-04-16T06:10:25.446Z,22.24
2024-04-16T06:12:53.151Z,22.25
2024-04-16T06:15:20.867Z,22.25
2024-04-16T06:17:48.900Z,22.26
2024-04-16T06:20:16.700Z,22.25
2024-04-16T06:22:47.836Z,22.25
2024-04-16T06:25:15.532Z,22.26
2024-04-16T06:27:43.380Z,22.25
2024-04-16T06:30:11.139Z,22.27
2024-04-16T06:32:39.007Z,22.26
2024-04-16T06:35:06.882Z,22.26
2024-04-16T06:37:34.662Z,22.26
2024-04-16T06:40:02.705Z,22.27
2024-04-16T06:42:31.266Z,22.28
2024-04-16T06:44:59.294Z,22.28
2024-04-16T06:47:28.397Z,22.28
2024-04-16T06:49:56.556Z,22.28
2024-04-16T06:52:24.866Z,22.28
2024-04-16T06:54:52.812Z,22.27
2024-04-16T06:57:20.700Z,22.28
2024-04-16T06:59:49.182Z,22.29
2024-04-16T07:02:17.086Z,22.28
2024-04-16T07:04:45.152Z,22.28
2024-04-16T07:07:13.317Z,22.29
2024-04-16T07:09:41.091Z,22.29
2024-04-16T07:12:09.268Z,22.30
2024-04-16T07:14:36.978Z,22.30
2024-04-16T07:17:05.173Z,22.31
2024-04-16T07:19:32.882Z,22.31
2024-04-16T07:22:01.104Z,22.32
2024-04-16T07:24:28.856Z,22.33
2024-04-16T07:26:56.642Z,22.33
2024-04-16T07:29:24.531Z,22.33
2024-04-16T07:31:52.522Z,22.34
2024-04-16T07:34:20.352Z,22.35
2024-04-16T07:36:48.408Z,22.35
2024-04-16T07:39:16.168Z,22.35
2024-04-16T07:41:46.403Z,22.35
2024-04-16T07:44:14.152Z,22.35
2024-04-16T07:46:41.930Z,22.35
2024-04-16T07:49:09.915Z,22.35
2024-04-16T07:51:37.858Z,22.35
2024-04-16T07:54:05.626Z,22.35
2024-04-16T07:56:33.394Z,22.35
2024-04-16T07:59:01.165Z,22.35
2024-04-16T08:01:28.980Z,22.35
2024-04-16T08:03:56.875Z,22.34
2024-04-16T08:06:24.555Z,22.35
2024-04-16T08:08:52.842Z,22.35
2024-04-16T08:11:20.533Z,22.34
2024-04-16T08:13:48.751Z,22.33
2024-04-16T08:16:16.726Z,22.34
2024-04-16T08:18:44.446Z,22.33
2024-04-16T08:21:12.179Z,22.33
2024-04-16T08:23:40.175Z,22.32
2024-04-16T08:26:09.790Z,22.32
2024-04-16T08:28:39.747Z,22.32
2024-04-16T08:31:08.086Z,22.31
2024-04-16T08:33:35.943Z,22.31
2024-04-16T08:36:04.152Z,22.30
2024-04-16T08:38:32.038Z,22.30
2024-04-16T08:41:04.162Z,22.29
2024-04-16T08:43:35.843Z,22.28
2024-04-16T08:46:03.653Z,22.28
2024-04-16T08:48:32.022Z,22.29
2024-04-16T08:51:00.113Z,22.28
2024-04-16T08:53:29.744Z,22.28
2024-04-16T08:55:59.433Z,22.28
2024-04-16T08:58:27.338Z,22.27
2024-04-16T09:00:57.192Z,22.28
2024-04-16T09:03:26.517Z,22.28
2024-04-16T09:05:54.919Z,22.28
2024-04-16T09:08:25.175Z,22.28
2024-04-16T09:10:53.171Z,22.27
2024-04-16T09:13:22.448Z,22.28
2024-04-16T09:15:50.381Z,22.28
2024-04-16T09:18:24.654Z,22.28
2024-04-16T09:20:56.134Z,22.29
2024-04-16T09:23:23.855Z,22.29
2024-04-16T09:25:51.613Z,22.29
2024-04-16T09:28:20.512Z,22.29
2024-04-16T09:30:58.501Z,22.30
2024-04-16T09:33:37.047Z,22.30
2024-04-16T09:36:15.298Z,22.31
2024-04-16T09:38:47.026Z,22.31
2024-04-16T09:41:15.484Z,22.31
2024-04-16T09:43:43.634Z,22.31
2024-04-16T09:46:16.829Z,22.32
2024-04-16T09:48:47.845Z,22.32
2024-04-16T09:51:18.393Z,22.33
2024-04-16T09:53:50.238Z,22.33
2024-04-16T09:56:20.768Z,22.34
2024-04-16T09:58:52.186Z,22.35
2024-04-16T10:01:21.822Z,22.36
2024-04-16T10:03:54.418Z,22.36
2024-04-16T10:06:22.388Z,22.37
2024-04-16T10:08:50.521Z,22.36
2024-04-16T10:11:25.269Z,22.37
2024-04-16T10:13:59.679Z,22.38
2024-04-16T10:16:27.832Z,22.39
2024-04-16T10:18:56.863Z,22.39
2024-04-16T10:21:25.988Z,22.39
2024-04-16T10:24:03.352Z,22.41
2024-04-16T10:26:31.474Z,22.41
2024-04-16T10:29:00.490Z,22.41
2024-04-16T10:31:34.978Z,22.41
2024-04-16T10:34:03.343Z,22.42
2024-04-16T10:36:34.609Z,22.42
2024-04-16T10:39:12.954Z,22.44
2024-04-16T10:41:52.145Z,22.43
2024-04-16T10:44:22.768Z,22.44
2024-04-16T10:46:52.575Z,22.45
2024-04-16T10:49:24.119Z,22.45
2024-04-16T10:51:52.116Z,22.46
2024-04-16T10:54:20.349Z,22.48
2024-04-16T10:56:51.407Z,22.48
2024-04-16T10:59:19.507Z,22.48
2024-04-16T11:01:48.762Z,22.49
2024-04-16T11:04:18.795Z,22.50
2024-04-16T11:06:48.007Z,22.51
2024-04-16T11:09:16.665Z,22.52
2024-04-16T11:11:45.240Z,22.52
2024-04-16T11:14:14.219Z,22.53
2024-04-16T11:16:42.605Z,22.53
2024-04-16T11:19:11.442Z,22.55
2024-04-16T11:21:40.406Z,22.55
2024-04-16T11:24:09.159Z,22.57
2024-04-16T11:26:40.089Z,22.59
2024-04-16T11:29:07.838Z,22.59
2024-04-16T11:31:35.549Z,22.60
2024-04-16T11:34:03.908Z,22.61
2024-04-16T11:36:32.420Z,22.61
2024-04-16T11:39:00.257Z,22.61
2024-04-16T11:41:30.177Z,22.60
2024-04-16T11:43:58.734Z,22.61
2024-04-16T11:46:26.701Z,22.61
2024-04-16T11:48:54.445Z,22.60
2024-04-16T11:51:22.138Z,22.60
2024-04-16T11:53:49.904Z,22.60
2024-04-16T11:56:17.708Z,22.60
2024-04-16T11:58:45.586Z,22.61
2024-04-16T12:01:13.726Z,22.61
2024-04-16T12:03:41.672Z,22.61
2024-04-16T12:06:09.896Z,22.63
2024-04-16T12:08:37.628Z,22.64
2024-04-16T12:11:05.583Z,22.65
2024-04-16T12:13:33.366Z,22.67
2024-04-16T12:16:01.612Z,22.68
2024-04-16T12:18:29.328Z,22.70
2024-04-16T12:20:57.070Z,22.70
2024-04-16T12:23:24.801Z,22.71
2024-04-16T12:25:53.032Z,22.71
2024-04-16T12:28:21.532Z,22.72
2024-04-16T12:30:49.614Z,22.72
2024-04-16T12:33:18.325Z,22.72
2024-04-16T12:35:46.436Z,22.73
2024-04-16T12:38:14.044Z,22.73
2024-04-16T12:40:41.918Z,22.73
2024-04-16T12:43:10.190Z,22.74
2024-04-16T12:45:38.344Z,22.74
2024-04-16T12:48:06.793Z,22.75
2024-04-16T12:50:35.826Z,22.75
2024-04-16T12:53:03.500Z,22.76
2024-04-16T12:55:31.736Z,22.77
2024-04-16T12:57:59.716Z,22.77
2024-04-16T13:00:27.483Z,22.79
2024-04-16T13:02:55.751Z,22.79
2024-04-16T13:05:23.936Z,22.79
2024-04-16T13:07:51.818Z,22.80
2024-04-16T13:10:19.807Z,22.81
2024-04-16T13:12:47.764Z,22.81
2024-04-16T13:15:15.816Z,22.81
2024-04-16T13:17:43.762Z,22.80
2024-04-16T13:20:12.405Z,22.81
2024-04-16T13:22:40.480Z,22.80
2024-04-16T13:25:08.678Z,22.81
2024-04-16T13:27:36.595Z,22.81
2024-04-16T13:30:05.590Z,22.80
2024-04-16T13:32:33.339Z,22.80
2024-04-16T13:35:01.279Z,22.79
2024-04-16T13:37:29.320Z,22.79
2024-04-16T13:39:57.454Z,22.79
2024-04-16T13:42:25.242Z,22.78
2024-04-16T13:44:55.144Z,22.78
2024-04-16T13:47:24.220Z,22.78
2024-04-16T13:49:53.133Z,22.78
2024-04-16T13:52:20.992Z,22.78
2024-04-16T13:54:48.907Z,22.78
2024-04-16T13:57:17.308Z,22.78
2024-04-16T13:59:45.213Z,22.78
2024-04-16T14:02:13.074Z,22.79
2024-04-16T14:04:41.019Z,22.78
2024-04-16T14:07:08.819Z,22.78
2024-04-16T14:09:36.492Z,22.77
2024-04-16T14:12:04.920Z,22.77
2024-04-16T14:14:33.960Z,22.77
2024-04-16T14:17:02.151Z,22.77
2024-04-16T14:19:30.383Z,22.76
2024-04-16T14:21:58.696Z,22.76
2024-04-16T14:24:31.786Z,22.76
2024-04-16T14:26:59.864Z,22.77
2024-04-16T14:29:31.693Z,22.79
2024-04-16T14:32:00.893Z,22.79
2024-04-16T14:34:29.536Z,22.80
2024-04-16T14:37:01.574Z,22.81
2024-04-16T14:39:30.055Z,22.80
2024-04-16T14:41:57.821Z,22.80
2024-04-16T14:44:26.604Z,22.79
2024-04-16T14:46:55.808Z,22.80
2024-04-16T14:49:23.577Z,22.78
2024-04-16T14:51:52.349Z,22.77
2024-04-16T14:54:20.136Z,22.77
2024-04-16T14:56:49.586Z,22.76
2024-04-16T14:59:17.498Z,22.75
2024-04-16T15:01:45.344Z,22.75
2024-04-16T15:04:13.358Z,22.74
2024-04-16T15:06:44.586Z,22.76
2024-04-16T15:09:16.753Z,22.77
2024-04-16T15:11:45.756Z,22.78
2024-04-16T15:14:13.732Z,22.79
2024-04-16T15:16:41.678Z,22.80
2024-04-16T15:19:09.465Z,22.82
2024-04-16T15:21:37.797Z,22.83
2024-04-16T15:24:06.618Z,22.84
2024-04-16T15:26:34.604Z,22.85
2024-04-16T15:29:02.368Z,22.86
2024-04-16T15:31:30.655Z,22.87
2024-04-16T15:33:58.715Z,22.88
2024-04-16T15:36:26.459Z,22.89
2024-04-16T15:38:54.310Z,22.91
2024-04-16T15:41:24.212Z,22.92
2024-04-16T15:43:52.964Z,22.93
2024-04-16T15:46:22.376Z,22.93
2024-04-16T15:48:50.540Z,22.93
2024-04-16T15:51:18.194Z,22.93
2024-04-16T15:53:45.983Z,22.93
2024-04-16T15:56:13.946Z,22.93
2024-04-16T15:58:46.515Z,22.93
2024-04-16T16:01:14.564Z,22.93
2024-04-16T16:03:43.342Z,22.92
2024-04-16T16:06:11.578Z,22.92
2024-04-16T16:08:39.329Z,22.92
2024-04-16T16:11:07.401Z,22.92
2024-04-16T16:13:35.684Z,22.92
2024-04-16T16:16:03.537Z,22.91
2024-04-16T16:18:31.376Z,22.92
2024-04-16T16:20:59.744Z,22.93
2024-04-16T16:23:27.388Z,22.94
2024-04-16T16:25:55.393Z,22.95
2024-04-16T16:28:23.502Z,22.96
2024-04-16T16:30:51.769Z,22.97
2024-04-16T16:33:19.567Z,22.99
2024-04-16T16:35:47.533Z,23.01
2024-04-16T16:38:15.227Z,23.04
2024-04-16T16:40:42.870Z,23.07
2024-04-16T16:43:10.804Z,23.10
2024-04-16T16:45:38.597Z,23.13
2024-04-16T16:48:07.148Z,23.16
2024-04-16T16:50:34.931Z,23.20
2024-04-16T16:53:02.807Z,23.24
2024-04-16T16:55:30.577Z,23.28
2024-04-16T16:57:59.403Z,23.31
2024-04-16T17:00:27.858Z,23.36
2024-04-16T17:02:55.693Z,23.39
2024-04-16T17:05:24.198Z,23.43
2024-04-16T17:07:52.087Z,23.46
2024-04-16T17:10:20.215Z,23.49
2024-04-16T17:12:48.403Z,23.51
2024-04-16T17:15:16.489Z,23.54
2024-04-16T17:17:44.588Z,23.57
2024-04-16T17:20:13.040Z,23.61
2024-04-16T17:22:41.046Z,23.65
2024-04-16T17:25:08.978Z,23.68
2024-04-16T17:27:37.010Z,23.72
2024-04-16T17:30:05.311Z,23.74
2024-04-16T17:32:33.472Z,23.77
2024-04-16T17:35:01.507Z,23.79
2024-04-16T17:37:29.719Z,23.81
2024-04-16T17:39:57.617Z,23.83
2024-04-16T17:42:25.684Z,23.85
2024-04-16T17:44:53.770Z,23.87
2024-04-16T17:47:21.654Z,23.90
2024-04-16T17:49:50.409Z,23.92
2024-04-16T17:52:18.243Z,23.93
2024-04-16T17:54:48.670Z,23.95
2024-04-16T17:57:17.609Z,23.96
2024-04-16T17:59:45.378Z,23.98
2024-04-16T18:02:13.269Z,23.99
2024-04-16T18:04:41.330Z,23.99
2024-04-16T18:07:09.071Z,23.99
2024-04-16T18:09:40.429Z,23.99
2024-04-16T18:12:08.734Z,23.98
2024-04-16T18:14:36.723Z,23.99
2024-04-16T18:17:04.642Z,24.00
2024-04-16T18:19:32.532Z,24.00
2024-04-16T18:22:00.303Z,24.01
2024-04-16T18:24:28.036Z,24.01
2024-04-16T18:26:55.726Z,24.01
2024-04-16T18:29:23.656Z,24.02
2024-04-16T18:31:51.767Z,24.03
2024-04-16T18:34:19.751Z,24.03
2024-04-16T18:36:47.855Z,24.04
2024-04-16T18:39:15.587Z,24.05
2024-04-16T18:41:43.322Z,24.07
2024-04-16T18:44:11.052Z,24.09
2024-04-16T18:46:39.839Z,24.10
2024-04-16T18:49:08.342Z,24.11
2024-04-16T18:51:36.655Z,24.13
2024-04-16T18:54:04.612Z,24.14
2024-04-16T18:56:32.587Z,24.14
2024-04-16T18:59:03.498Z,24.15
2024-04-16T19:01:32.035Z,24.15
2024-04-16T19:04:00.379Z,24.15
2024-04-16T19:06:28.073Z,24.15
2024-04-16T19:08:55.815Z,24.16
2024-04-16T19:11:23.937Z,24.18
2024-04-16T19:13:51.851Z,24.20
2024-04-16T19:16:20.024Z,24.22
2024-04-16T19:18:47.912Z,24.23
2024-04-16T19:21:18.667Z,24.24
2024-04-16T19:23:46.842Z,24.24
2024-04-16T19:26:14.745Z,24.24
2024-04-16T19:28:42.489Z,24.24
2024-04-16T19:31:10.319Z,24.24
2024-04-16T19:33:38.190Z,24.23
2024-04-16T19:36:06.664Z,24.23
2024-04-16T19:38:34.436Z,24.23
2024-04-16T19:41:02.304Z,24.23
2024-04-16T19:43:30.130Z,24.23
2024-04-16T19:45:57.939Z,24.24
2024-04-16T19:48:25.880Z,24.24
2024-04-16T19:50:53.875Z,24.23
2024-04-16T19:53:21.953Z,24.24
2024-04-16T19:55:57.649Z,24.24
2024-04-16T19:58:25.575Z,24.24
2024-04-16T20:00:53.252Z,24.24
2024-04-16T20:03:21.063Z,24.25
2024-04-16T20:05:48.893Z,24.25
2024-04-16T20:08:16.748Z,24.25
2024-04-16T20:10:44.746Z,24.26
2024-04-16T20:13:13.465Z,24.27
2024-04-16T20:15:42.209Z,24.29
2024-04-16T20:18:13.674Z,24.32
2024-04-16T20:20:44.309Z,24.37
2024-04-16T20:23:12.153Z,24.43
2024-04-16T20:25:39.924Z,24.51
2024-04-16T20:28:07.679Z,24.58
2024-04-16T20:30:35.552Z,24.64
2024-04-16T20:33:03.487Z,24.72
2024-04-16T20:35:32.188Z,24.79
2024-04-16T20:38:00.481Z,24.86
2024-04-16T20:40:28.682Z,24.93
2024-04-16T20:42:56.419Z,24.99
2024-04-16T20:45:25.423Z,25.06
2024-04-16T20:47:53.464Z,25.11
2024-04-16T20:50:21.179Z,25.17
2024-04-16T20:52:51.763Z,25.21
2024-04-16T20:55:19.580Z,25.28
2024-04-16T20:57:47.262Z,25.33
2024-04-16T21:00:15.319Z,25.38
2024-04-16T21:02:43.099Z,25.43
2024-04-16T21:05:11.248Z,25.48
2024-04-16T21:07:39.249Z,25.53
2024-04-16T21:10:07.196Z,25.57
2024-04-16T21:12:35.969Z,25.61
2024-04-16T21:15:03.955Z,25.64
2024-04-16T21:17:32.567Z,25.67
2024-04-16T21:20:00.861Z,25.70
2024-04-16T21:22:29.206Z,25.73
2024-04-16T21:24:56.834Z,25.77
2024-04-16T21:27:24.543Z,25.80
2024-04-16T21:29:52.685Z,25.83
2024-04-16T21:32:22.959Z,25.86
2024-04-16T21:34:51.267Z,25.89
2024-04-16T21:37:19.186Z,25.92
2024-04-16T21:39:47.217Z,25.95
2024-04-16T21:42:15.103Z,25.99
2024-04-16T21:44:42.852Z,26.01
2024-04-16T21:47:11.406Z,26.04
2024-04-16T21:49:39.145Z,26.05
2024-04-16T21:52:06.969Z,26.08
2024-04-16T21:54:34.940Z,26.10
2024-04-16T21:57:02.907Z,26.11
2024-04-16T21:59:31.392Z,26.14
2024-04-16T22:01:59.618Z,26.16
2024-04-16T22:04:27.756Z,26.18
2024-04-16T22:06:55.724Z,26.19
2024-04-16T22:09:23.436Z,26.21
2024-04-16T22:11:51.213Z,26.23
2024-04-16T22:14:19.934Z,26.25
2024-04-16T22:16:47.860Z,26.27
2024-04-16T22:19:15.702Z,26.29
2024-04-16T22:21:43.539Z,26.30
2024-04-16T22:24:11.324Z,26.32
2024-04-16T22:26:39.098Z,26.33
2024-04-16T22:29:07.553Z,26.35
2024-04-16T22:31:35.468Z,26.37
2024-04-16T22:34:03.294Z,26.37
2024-04-16T22:36:31.159Z,26.38
2024-04-16T22:38:59.040Z,26.37
2024-04-16T22:41:26.691Z,26.38
2024-04-16T22:43:54.531Z,26.38
2024-04-16T22:46:22.551Z,26.38
2024-04-16T22:48:50.393Z,26.39
2024-04-16T22:51:18.473Z,26.38
2024-04-16T22:53:46.234Z,26.39
2024-04-16T22:56:13.997Z,26.39
2024-04-16T22:58:41.775Z,26.40
2024-04-16T23:01:09.630Z,26.40
2024-04-16T23:03:37.376Z,26.39
2024-04-16T23:06:06.347Z,26.39
2024-04-16T23:08:34.181Z,26.40
2024-04-16T23:11:04.116Z,26.41
2024-04-16T23:13:32.071Z,26.42
2024-04-16T23:15:59.811Z,26.44
2024-04-16T23:18:27.661Z,26.44
2024-04-16T23:20:55.517Z,26.43
2024-04-16T23:23:23.311Z,26.42
2024-04-16T23:25:51.065Z,26.40
2024-04-16T23:28:18.967Z,26.38
2024-04-16T23:30:47.579Z,26.36
2024-04-16T23:33:15.914Z,26.33
2024-04-16T23:35:44.605Z,26.31
2024-04-16T23:38:12.369Z,26.29
2024-04-16T23:40:49.600Z,26.26
2024-04-16T23:43:17.532Z,26.24
2024-04-16T23:45:45.320Z,26.22
2024-04-16T23:48:13.252Z,26.19
2024-04-16T23:50:41.039Z,26.16
2024-04-16T23:53:08.876Z,26.13
2024-04-16T23:55:36.707Z,26.09
2024-04-16T23:58:04.538Z,26.05
